Time;durP1;ratioP1;P1;durP2;ratioP2;P2;SDS_P1;SDS_P2;PMS_P1;PMS_P2;Temp;Humidity;BMP_temperature;BMP_pressure;BME280_temperature;BME280_humidity;BME280_pressure;Samples;Min_cycle;Max_cycle;Signal;HPM_P1;HPM_P2
2022/12/26 13:04:15;;;;;;;8.53;1.63;;;;;;;7.32;100.00;101428.13;5292451;27;20450;-78
2022/12/26 13:06:52;;;;;;;11.67;2.13;;;;;;;7.26;100.00;101423.16;5295049;28;20032;-79
2022/12/26 13:09:41;;;;;;;8.53;1.90;;;;;;;7.19;100.00;101422.50;5294393;28;20020;-78
2022/12/26 13:12:20;;;;;;;7.03;1.73;;;;;;;7.18;100.00;101399.97;5280988;28;20035;-77
2022/12/26 13:15:01;;;;;;;7.63;1.80;;;;;;;7.29;100.00;101419.59;5285694;28;20049;-78
2022/12/26 13:17:46;;;;;;;8.67;1.63;;;;;;;7.35;100.00;101421.94;5300104;28;20032;-77
2022/12/26 13:20:23;;;;;;;6.97;1.83;;;;;;;7.35;100.00;101414.13;5291246;28;20510;-75
2022/12/26 13:26:05;;;;;;;7.40;1.73;;;;;;;7.45;100.00;101419.88;5294755;28;20395;-75
2022/12/26 13:28:57;;;;;;;8.60;1.97;;;;;;;7.42;100.00;101430.41;5296023;28;20029;-76
2022/12/26 13:31:36;;;;;;;5.00;1.67;;;;;;;7.47;100.00;101431.09;5292106;28;20032;-73
2022/12/26 13:34:14;;;;;;;10.03;1.90;;;;;;;7.54;100.00;101437.75;5292870;28;20451;-73
2022/12/26 13:36:48;;;;;;;7.40;2.63;;;;;;;7.49;100.00;101442.28;5293497;28;20044;-73
2022/12/26 13:39:22;;;;;;;9.27;2.60;;;;;;;7.57;100.00;101442.88;5292056;28;20024;-75
2022/12/26 13:44:50;;;;;;;6.22;2.55;;;;;;;7.41;100.00;101423.50;5290824;28;20032;-73
2022/12/26 13:47:36;;;;;;;6.47;2.17;;;;;;;7.41;100.00;101423.50;5291264;28;20028;-75
2022/12/26 13:50:47;;;;;;;10.00;2.87;;;;;;;7.58;100.00;101443.72;5292395;28;20035;-74
2022/12/26 13:53:33;;;;;;;9.97;2.73;;;;;;;7.48;100.00;101441.47;5291123;28;20036;-75
2022/12/26 13:56:16;;;;;;;4.90;1.67;;;;;;;7.42;100.00;101461.69;5272438;28;20075;-74
2022/12/26 13:58:53;;;;;;;7.13;2.10;;;;;;;7.45;100.00;101469.38;5271861;28;20040;-74
2022/12/26 14:01:47;;;;;;;5.87;1.70;;;;;;;7.45;100.00;101458.97;5291686;28;20101;-75
2022/12/26 14:05:09;;;;;;;3.97;1.57;;;;;;;7.43;100.00;101453.81;5293112;28;20657;-75
2022/12/26 14:07:52;;;;;;;8.40;1.40;;;;;;;7.38;100.00;101466.16;5269823;28;20036;-75
2022/12/26 14:10:44;;;;;;;5.80;1.47;;;;;;;7.24;100.00;101472.69;5269620;28;20123;-75
2022/12/26 14:13:37;;;;;;;7.30;2.00;;;;;;;7.22;100.00;101479.75;5287043;28;20394;-76
2022/12/26 14:16:28;;;;;;;8.90;2.93;;;;;;;7.21;100.00;101485.84;5278096;28;20365;-77
2022/12/26 14:19:18;;;;;;;7.37;1.90;;;;;;;7.07;100.00;101495.91;5279909;28;20417;-74
2022/12/26 14:22:17;;;;;;;6.30;1.50;;;;;;;7.10;100.00;101498.41;5278608;28;20025;-76
2022/12/26 14:25:21;;;;;;;7.80;1.50;;;;;;;7.00;100.00;101503.91;5279247;28;20031;-75
2022/12/26 14:28:01;;;;;;;8.57;1.73;;;;;;;6.83;100.00;101495.81;5277078;28;20469;-75
2022/12/26 14:30:59;;;;;;;5.17;1.97;;;;;;;6.89;100.00;101522.50;5277966;28;20036;-75
2022/12/26 14:34:00;;;;;;;10.23;1.90;;;;;;;6.95;100.00;101531.88;5278309;28;20074;-75
2022/12/26 14:36:47;;;;;;;6.33;2.10;;;;;;;6.74;100.00;101539.50;5277501;28;20035;-75
2022/12/26 14:40:00;;;;;;;3.57;1.30;;;;;;;6.85;100.00;101533.94;5278408;28;20020;-75
2022/12/26 14:43:12;;;;;;;5.67;1.20;;;;;;;6.60;100.00;101500.03;5279042;28;20511;-74
2022/12/26 14:45:49;;;;;;;13.80;2.37;;;;;;;6.64;100.00;101543.28;5277907;28;20058;-75
2022/12/26 14:48:20;;;;;;;5.03;1.30;;;;;;;6.73;100.00;101548.22;5278197;28;20033;-77
2022/12/26 14:50:54;;;;;;;5.17;1.53;;;;;;;6.54;100.00;101542.75;5278629;28;20039;-75
2022/12/26 14:53:28;;;;;;;5.70;1.40;;;;;;;6.61;100.00;101559.88;5282167;28;20031;-75
2022/12/26 14:56:24;;;;;;;6.18;1.50;;;;;;;6.66;100.00;101551.91;5300654;28;20050;-74
2022/12/26 14:59:31;;;;;;;8.43;1.50;;;;;;;6.67;100.00;101566.63;5277797;28;20024;-74
2022/12/26 15:02:15;;;;;;;6.43;1.40;;;;;;;6.32;100.00;101564.19;5275598;28;20041;-74
2022/12/26 15:05:08;;;;;;;5.93;1.43;;;;;;;6.58;100.00;101590.34;5277754;28;20021;-74
2022/12/26 15:07:49;;;;;;;2.33;1.10;;;;;;;6.57;100.00;101597.28;5278925;28;20025;-75
2022/12/26 15:10:48;;;;;;;7.77;1.77;;;;;;;6.55;100.00;101612.09;5279362;28;20391;-75
2022/12/26 15:13:36;;;;;;;2.93;1.30;;;;;;;6.44;100.00;101615.00;5278421;28;20043;-75
2022/12/26 15:16:31;;;;;;;4.67;1.30;;;;;;;6.43;100.00;101617.66;5276946;28;20013;-74
2022/12/26 15:19:39;;;;;;;4.70;1.50;;;;;;;6.45;100.00;101623.69;5278545;28;20034;-75
2022/12/26 15:22:24;;;;;;;6.90;2.03;;;;;;;6.41;100.00;101615.13;5278447;28;20039;-74
2022/12/26 15:25:22;;;;;;;4.72;1.58;;;;;;;6.33;100.00;101619.69;5278456;28;20029;-75
2022/12/26 15:27:56;;;;;;;9.27;1.60;;;;;;;6.09;100.00;101625.56;5277604;28;20036;-74
2022/12/26 15:30:59;;;;;;;7.35;1.77;;;;;;;6.24;100.00;101629.47;5276804;28;20035;-75
2022/12/26 15:33:42;;;;;;;10.20;1.57;;;;;;;6.10;100.00;101626.41;5278819;28;20025;-76
2022/12/26 15:36:23;;;;;;;7.87;1.50;;;;;;;6.23;100.00;101632.97;5277312;28;20071;-75
2022/12/26 15:39:14;;;;;;;7.43;2.03;;;;;;;6.19;100.00;101639.16;5278209;28;20113;-75
2022/12/26 15:41:52;;;;;;;7.27;1.90;;;;;;;6.17;100.00;101635.75;5266100;28;20028;-75
2022/12/26 15:44:44;;;;;;;8.90;2.10;;;;;;;6.09;100.00;101641.16;5277198;28;20162;-75
2022/12/26 15:47:21;;;;;;;7.53;1.83;;;;;;;5.96;100.00;101630.22;5278276;28;20052;-76
2022/12/26 15:50:25;;;;;;;6.23;1.60;;;;;;;6.16;100.00;101657.47;5276956;28;20025;-75
2022/12/26 15:53:21;;;;;;;11.63;2.33;;;;;;;6.07;100.00;101663.78;5277973;28;20055;-77
2022/12/26 15:56:10;;;;;;;8.83;2.47;;;;;;;6.07;100.00;101663.78;5276297;28;20063;-71
2022/12/26 15:58:45;;;;;;;7.73;1.80;;;;;;;6.04;100.00;101669.88;5274285;28;20020;-71
2022/12/26 16:01:37;;;;;;;9.27;1.70;;;;;;;5.95;100.00;101672.75;5275150;28;20025;-71
2022/12/26 16:04:20;;;;;;;8.03;2.17;;;;;;;5.91;100.00;101679.78;5275204;28;20048;-72
2022/12/26 16:07:28;;;;;;;8.03;1.90;;;;;;;5.96;100.00;101686.56;5276884;28;20069;-73
2022/12/26 16:10:00;;;;;;;11.20;3.00;;;;;;;5.80;100.00;101680.03;5275764;28;20028;-71
2022/12/26 16:12:34;;;;;;;7.87;1.63;;;;;;;5.81;100.00;101684.34;5276427;28;20032;-71
2022/12/26 16:15:08;;;;;;;6.43;1.52;;;;;;;5.76;100.00;101691.41;5274883;28;20136;-72
2022/12/26 16:17:41;;;;;;;12.35;1.92;;;;;;;5.81;100.00;101684.34;5274469;28;20529;-72
2022/12/26 16:20:17;;;;;;;11.87;2.53;;;;;;;5.83;100.00;101691.25;5276422;28;20029;-72
2022/12/26 16:22:48;;;;;;;12.23;3.60;;;;;;;5.73;100.00;101696.69;5275839;28;20398;-71
2022/12/26 16:25:24;;;;;;;6.67;2.80;;;;;;;5.71;100.00;101708.88;5275686;28;20028;-72
2022/12/26 16:27:58;;;;;;;16.33;3.77;;;;;;;5.59;100.00;101709.16;5275941;28;20444;-73
2022/12/26 16:30:35;;;;;;;13.77;3.80;;;;;;;5.62;100.00;101709.94;5274900;28;20363;-72
2022/12/26 16:33:07;;;;;;;6.00;1.83;;;;;;;5.60;100.00;101729.09;5274941;28;20040;-73
2022/12/26 16:35:40;;;;;;;7.07;2.10;;;;;;;5.64;100.00;101734.16;5275366;28;20021;-72
2022/12/26 16:38:22;;;;;;;12.52;2.80;;;;;;;5.52;100.00;101732.72;5275183;28;20174;-72
2022/12/26 16:40:55;;;;;;;16.37;2.93;;;;;;;5.53;100.00;101737.00;5268836;28;20090;-72
2022/12/26 16:43:29;;;;;;;8.10;2.20;;;;;;;5.47;100.00;101731.97;5275833;28;20368;-71
2022/12/26 16:46:04;;;;;;;8.13;2.58;;;;;;;5.45;100.00;101736.34;5274676;28;20050;-70
2022/12/26 16:48:36;;;;;;;9.80;2.33;;;;;;;5.43;100.00;101728.59;5275477;28;20023;-71
2022/12/26 16:51:42;;;;;;;9.60;2.67;;;;;;;5.44;100.00;101730.31;5275258;28;20487;-72
2022/12/26 16:54:25;;;;;;;9.80;2.57;;;;;;;5.26;100.00;101731.59;5243916;28;20139;-72
2022/12/26 16:57:08;;;;;;;11.70;2.60;;;;;;;5.25;100.00;101732.50;5266488;28;20024;-73
2022/12/26 16:59:51;;;;;;;10.70;2.80;;;;;;;5.21;100.00;101736.03;5275250;28;20032;-72
2022/12/26 17:02:31;;;;;;;12.90;3.37;;;;;;;5.08;100.00;101718.13;5275376;28;20037;-72
2022/12/26 17:05:14;;;;;;;10.40;2.57;;;;;;;4.99;100.00;101725.28;5275670;28;20033;-72
2022/12/26 17:07:48;;;;;;;13.23;3.07;;;;;;;5.03;100.00;101740.75;5274674;28;20082;-72
2022/12/26 17:10:26;;;;;;;9.93;2.40;;;;;;;4.93;100.00;101744.44;5274938;28;20025;-72
2022/12/26 17:13:00;;;;;;;7.03;2.20;;;;;;;4.89;100.00;101747.97;5275578;28;20028;-72
2022/12/26 17:15:35;;;;;;;6.80;2.90;;;;;;;4.78;100.00;101749.06;5274984;28;20112;-72
2022/12/26 17:18:35;;;;;;;9.17;2.77;;;;;;;4.93;100.00;101755.69;5275141;28;20410;-72
2022/12/26 17:21:25;;;;;;;13.63;2.40;;;;;;;4.83;100.00;101752.41;5264601;28;20036;-72
2022/12/26 17:24:06;;;;;;;9.20;2.13;;;;;;;4.82;100.00;101755.91;5275301;28;20119;-72
2022/12/26 17:26:39;;;;;;;7.47;2.00;;;;;;;4.67;100.00;101758.81;5275240;28;20474;-72
2022/12/26 17:29:34;;;;;;;9.23;2.20;;;;;;;4.72;100.00;101770.81;5274405;28;20032;-72
2022/12/26 17:32:07;;;;;;;9.43;2.40;;;;;;;4.63;100.00;101762.34;5274682;28;20032;-72
2022/12/26 17:34:39;;;;;;;11.70;2.27;;;;;;;4.68;100.00;101768.28;5275975;28;20383;-72
2022/12/26 17:37:20;;;;;;;11.07;1.90;;;;;;;4.63;100.00;101768.38;5274713;28;20101;-73
2022/12/26 17:40:21;;;;;;;10.93;2.17;;;;;;;4.59;100.00;101772.78;5254130;28;20399;-72
2022/12/26 17:43:02;;;;;;;11.53;2.43;;;;;;;4.53;100.00;101754.75;5265174;28;20048;-71
2022/12/26 17:45:34;;;;;;;11.23;2.47;;;;;;;4.54;100.00;101761.66;5273241;28;20506;-71
2022/12/26 17:48:06;;;;;;;9.77;2.63;;;;;;;4.50;100.00;101756.56;5275180;28;20027;-71
2022/12/26 17:50:40;;;;;;;11.10;2.70;;;;;;;4.45;100.00;101761.84;5279163;28;20096;-71
2022/12/26 17:53:26;;;;;;;8.80;2.60;;;;;;;4.48;100.00;101759.19;5278374;28;20017;-72
2022/12/26 17:56:00;;;;;;;6.53;2.80;;;;;;;4.44;100.00;101784.31;5277365;28;20112;-71
2022/12/26 17:58:33;;;;;;;6.70;2.72;;;;;;;4.41;100.00;101779.19;5278865;28;20013;-71
2022/12/26 18:01:05;;;;;;;14.00;2.90;;;;;;;4.35;100.00;101789.66;5277662;28;20032;-71
2022/12/26 18:03:36;;;;;;;11.80;3.23;;;;;;;4.30;100.00;101787.16;5278105;28;20045;-71
2022/12/26 18:06:12;;;;;;;10.20;3.50;;;;;;;4.36;100.00;101802.59;5278415;28;20086;-71
2022/12/26 18:08:44;;;;;;;11.87;4.07;;;;;;;4.21;100.00;101802.88;5278699;28;20024;-71
2022/12/26 18:11:15;;;;;;;20.20;4.37;;;;;;;4.16;100.00;101797.78;5278213;28;20477;-71
2022/12/26 18:13:46;;;;;;;15.83;3.77;;;;;;;4.17;100.00;101809.03;5278321;28;20024;-71
2022/12/26 18:16:19;;;;;;;11.40;4.37;;;;;;;4.21;100.00;101821.03;5278456;28;20036;-71
2022/12/26 18:18:51;;;;;;;8.47;3.63;;;;;;;4.10;100.00;101819.47;5278561;28;20527;-72
2022/12/26 18:21:22;;;;;;;12.20;3.47;;;;;;;4.10;100.00;101818.66;5278760;28;20104;-71
2022/12/26 18:23:54;;;;;;;8.43;2.90;;;;;;;3.92;100.00;101804.22;5278398;28;20028;-71
2022/12/26 18:26:28;;;;;;;13.93;4.67;;;;;;;4.07;100.00;101829.91;5279092;28;20017;-71
2022/12/26 18:29:00;;;;;;;12.60;3.30;;;;;;;4.05;100.00;101836.84;5275940;28;20033;-71
2022/12/26 18:31:31;;;;;;;10.50;3.70;;;;;;;3.94;100.00;101813.72;5278524;28;20028;-71
2022/12/26 18:34:02;;;;;;;13.10;2.67;;;;;;;3.97;100.00;101839.56;5278452;28;20021;-71
2022/12/26 18:36:37;;;;;;;18.87;3.10;;;;;;;3.94;100.00;101838.78;5277058;28;20021;-71
2022/12/26 18:39:13;;;;;;;13.27;2.90;;;;;;;3.93;100.00;101842.22;5278088;28;20090;-71
2022/12/26 18:41:45;;;;;;;11.53;3.17;;;;;;;3.86;100.00;101846.66;5278058;28;20028;-71
2022/12/26 18:44:18;;;;;;;10.07;3.00;;;;;;;3.86;100.00;101854.41;5274474;28;19917;-71
2022/12/26 18:46:50;;;;;;;11.63;4.43;;;;;;;3.75;100.00;101860.63;5277724;28;20617;-71
2022/12/26 18:49:21;;;;;;;13.47;3.50;;;;;;;3.79;100.00;101864.03;5278430;28;20047;-71
2022/12/26 18:51:53;;;;;;;9.67;3.63;;;;;;;3.74;100.00;101865.84;5277461;28;20032;-71
2022/12/26 18:54:25;;;;;;;8.53;2.83;;;;;;;3.72;100.00;101865.00;5277897;28;20086;-71
2022/12/26 18:56:56;;;;;;;7.70;2.87;;;;;;;3.70;100.00;101872.78;5277484;28;20120;-71
2022/12/26 18:59:27;;;;;;;10.50;3.63;;;;;;;3.74;100.00;101883.97;5276348;28;20031;-71
2022/12/26 19:01:58;;;;;;;7.80;3.07;;;;;;;3.68;100.00;101882.34;5277108;28;20045;-71
2022/12/26 19:04:30;;;;;;;14.97;3.80;;;;;;;3.66;100.00;101880.63;5277679;28;20021;-71
2022/12/26 19:07:01;;;;;;;13.20;3.47;;;;;;;3.63;100.00;101891.91;5277812;28;20501;-71
2022/12/26 19:09:32;;;;;;;15.97;3.50;;;;;;;3.65;100.00;101899.66;5277283;28;20570;-71
2022/12/26 19:12:04;;;;;;;15.77;3.93;;;;;;;3.47;100.00;101878.31;5277254;28;20401;-71
2022/12/26 19:14:35;;;;;;;13.80;3.60;;;;;;;3.60;100.00;101895.38;5276715;28;20391;-71
2022/12/26 19:17:07;;;;;;;10.23;3.37;;;;;;;3.55;100.00;101899.78;5276593;28;20041;-72
2022/12/26 19:19:38;;;;;;;21.60;4.30;;;;;;;3.54;100.00;101898.06;5277658;28;20632;-72
2022/12/26 19:22:09;;;;;;;11.90;3.93;;;;;;;3.45;100.00;101885.22;5276955;28;20036;-72
2022/12/26 19:24:41;;;;;;;16.13;3.30;;;;;;;3.57;100.00;101905.81;5276981;28;20033;-72
2022/12/26 19:27:12;;;;;;;10.03;3.57;;;;;;;3.44;100.00;101886.13;5276550;28;20028;-72
2022/12/26 19:29:43;;;;;;;14.73;3.80;;;;;;;3.53;100.00;101903.25;5275464;28;20119;-71
2022/12/26 19:32:15;;;;;;;9.87;3.10;;;;;;;3.59;100.00;101900.59;5276875;28;20017;-71
2022/12/26 19:34:46;;;;;;;14.47;3.30;;;;;;;3.54;100.00;101905.84;5277510;28;20035;-72
2022/12/26 19:37:18;;;;;;;9.17;3.33;;;;;;;3.56;100.00;101913.59;5276229;28;20021;-71
2022/12/26 19:39:49;;;;;;;10.90;3.37;;;;;;;3.44;100.00;101896.47;5276389;28;20099;-71
2022/12/26 19:42:20;;;;;;;11.60;3.20;;;;;;;3.56;100.00;101908.41;5276617;28;20031;-72
2022/12/26 19:44:52;;;;;;;10.57;3.83;;;;;;;3.58;100.00;101915.28;5275929;28;20032;-72
2022/12/26 19:47:23;;;;;;;9.70;3.13;;;;;;;3.58;100.00;101917.03;5261584;28;20036;-71
2022/12/26 19:49:54;;;;;;;13.80;3.30;;;;;;;3.63;100.00;101926.44;5255614;28;20333;-71
2022/12/26 19:52:25;;;;;;;12.87;3.20;;;;;;;3.58;100.00;101927.38;5262956;28;20111;-71
2022/12/26 19:54:57;;;;;;;13.73;3.60;;;;;;;3.54;100.00;101934.34;5275748;28;20033;-71
2022/12/26 19:57:29;;;;;;;11.93;4.07;;;;;;;3.58;100.00;101940.34;5276342;28;20444;-71
2022/12/26 20:00:00;;;;;;;10.67;3.40;;;;;;;3.55;100.00;101940.34;5275984;28;20113;-71
2022/12/26 20:02:31;;;;;;;14.03;4.27;;;;;;;3.53;100.00;101939.50;5276052;28;20136;-72
2022/12/26 20:05:03;;;;;;;13.23;3.63;;;;;;;3.56;100.00;101942.94;5276161;28;20100;-72
2022/12/26 20:07:34;;;;;;;14.67;3.60;;;;;;;3.51;100.00;101948.16;5276442;28;20352;-72
2022/12/26 20:10:06;;;;;;;15.50;4.23;;;;;;;3.52;100.00;101956.81;5275478;28;20111;-72
2022/12/26 20:12:37;;;;;;;12.53;4.40;;;;;;;3.50;100.00;101949.06;5276095;28;20364;-72
2022/12/26 20:15:09;;;;;;;14.40;3.80;;;;;;;3.49;100.00;101936.97;5275239;28;20196;-72
2022/12/26 20:17:40;;;;;;;14.83;3.90;;;;;;;3.53;100.00;101948.16;5274883;28;20055;-71
2022/12/26 20:20:11;;;;;;;10.17;4.30;;;;;;;3.51;100.00;101947.31;5276258;28;20035;-70
2022/12/26 20:22:44;;;;;;;13.83;4.37;;;;;;;3.54;100.00;101929.16;5280288;28;20047;-70
2022/12/26 20:25:16;;;;;;;13.57;4.00;;;;;;;3.55;100.00;101936.03;5257910;28;20075;-71
2022/12/26 20:27:47;;;;;;;12.30;3.10;;;;;;;3.45;100.00;101919.78;5275824;28;20028;-69
2022/12/26 20:30:18;;;;;;;14.43;3.90;;;;;;;3.52;100.00;101933.50;5274496;28;20044;-70
2022/12/26 20:32:49;;;;;;;9.70;3.67;;;;;;;3.50;100.00;101935.25;5275429;28;20028;-70
2022/12/26 20:35:21;;;;;;;11.07;4.13;;;;;;;3.54;100.00;101946.44;5275699;28;20454;-70
2022/12/26 20:37:52;;;;;;;11.60;4.13;;;;;;;3.48;100.00;101953.41;5275698;28;20033;-70
2022/12/26 20:40:23;;;;;;;14.77;4.33;;;;;;;3.44;100.00;101948.28;5276483;28;20035;-69
2022/12/26 20:42:54;;;;;;;13.37;4.20;;;;;;;3.42;100.00;101955.22;5274898;28;20071;-74
2022/12/26 20:45:26;;;;;;;11.07;3.53;;;;;;;3.45;100.00;101958.63;5295260;28;20024;-70
2022/12/26 20:47:57;;;;;;;15.50;4.37;;;;;;;3.51;100.00;101968.03;5296728;28;20024;-70
2022/12/26 20:50:28;;;;;;;14.33;3.70;;;;;;;3.44;100.00;101961.22;5296342;28;20103;-74
2022/12/26 20:53:00;;;;;;;14.07;3.47;;;;;;;3.44;100.00;101969.00;5279987;28;20098;-70
2022/12/26 20:55:35;;;;;;;12.20;4.50;;;;;;;3.42;100.00;101970.75;5263876;28;20562;-70
2022/12/26 20:58:06;;;;;;;14.60;5.63;;;;;;;3.37;100.00;101961.28;5272792;28;20016;-70
2022/12/26 21:00:43;;;;;;;13.63;5.10;;;;;;;3.40;100.00;101973.34;5270894;28;20028;-70
2022/12/26 21:03:14;;;;;;;12.30;4.57;;;;;;;3.36;100.00;101972.53;5274458;28;20039;-69
2022/12/26 21:05:46;;;;;;;12.73;4.90;;;;;;;3.41;100.00;101979.38;5274899;28;20096;-70
2022/12/26 21:08:17;;;;;;;10.37;4.30;;;;;;;3.33;100.00;101975.16;5271580;28;20039;-69
2022/12/26 21:10:48;;;;;;;19.70;4.47;;;;;;;3.31;100.00;101973.44;5274136;28;20020;-68
2022/12/26 21:13:20;;;;;;;17.23;4.70;;;;;;;3.36;100.00;101982.88;5269444;28;20033;-70
2022/12/26 21:15:51;;;;;;;10.83;4.13;;;;;;;3.32;100.00;101981.19;5262355;28;20044;-73
2022/12/26 21:18:22;;;;;;;14.17;4.63;;;;;;;3.31;100.00;101988.97;5268433;28;20115;-70
2022/12/26 21:20:53;;;;;;;9.77;4.03;;;;;;;3.34;100.00;101999.31;5284824;28;20024;-70
2022/12/26 21:23:25;;;;;;;8.97;3.60;;;;;;;3.28;100.00;101992.47;5274899;28;20476;-70
2022/12/26 21:25:57;;;;;;;11.50;3.67;;;;;;;3.24;100.00;101988.19;5275404;28;20089;-70
2022/12/26 21:28:28;;;;;;;13.03;4.47;;;;;;;3.26;100.00;101994.22;5274521;28;20028;-70
2022/12/26 21:31:00;;;;;;;9.97;5.20;;;;;;;3.17;100.00;101991.72;5277625;28;20475;-71
2022/12/26 21:33:32;;;;;;;11.53;3.80;;;;;;;3.22;100.00;102005.47;5277816;28;21472;-70
2022/12/26 21:36:08;;;;;;;12.30;3.60;;;;;;;3.20;100.00;102002.03;5276387;28;20449;-71
2022/12/26 21:38:39;;;;;;;9.00;4.13;;;;;;;3.15;100.00;102004.69;5278425;28;20526;-69
2022/12/26 21:41:11;;;;;;;8.83;3.70;;;;;;;3.12;100.00;102000.41;5277799;28;20039;-69
2022/12/26 21:43:42;;;;;;;9.53;3.67;;;;;;;3.17;100.00;102008.13;5275251;28;20024;-70
2022/12/26 21:46:16;;;;;;;10.40;3.67;;;;;;;3.11;100.00;102011.63;5278897;28;20419;-71
2022/12/26 21:48:48;;;;;;;11.23;4.15;;;;;;;3.12;100.00;102008.16;5278256;28;20028;-72
2022/12/26 21:51:24;;;;;;;11.87;4.83;;;;;;;3.07;100.00;102007.31;5268605;28;20020;-71
2022/12/26 21:55:25;;;;;;;11.37;4.20;;;;;;;3.12;100.00;102021.13;5273246;28;20045;-72
2022/12/26 21:56:47;;;;;;;12.73;3.83;;;;;;;2.99;100.00;102010.00;5276167;28;20071;-72
2022/12/26 22:04:17;;;;;;;16.00;3.83;;;;;;;3.10;100.00;102028.03;5272009;28;20052;-71
2022/12/26 22:05:04;;;;;;;14.73;4.27;;;;;;;3.04;100.00;102027.22;5272203;28;20102;-69
2022/12/26 22:07:35;;;;;;;11.23;4.33;;;;;;;2.90;100.00;102018.69;5274978;28;20403;-71
2022/12/26 22:10:07;;;;;;;15.63;4.90;;;;;;;3.07;100.00;102045.31;5269253;28;20028;-71
2022/12/26 22:12:56;;;;;;;13.73;4.17;;;;;;;2.97;100.00;102027.25;5276764;28;20036;-71
2022/12/26 22:18:18;;;;;;;9.57;4.30;;;;;;;3.01;100.00;102038.44;5275993;28;20028;-71
2022/12/26 22:20:49;;;;;;;11.70;3.93;;;;;;;2.89;100.00;102023.88;5277169;28;20742;-71
2022/12/26 22:23:21;;;;;;;14.57;4.87;;;;;;;2.95;100.00;102043.69;5277913;28;20103;-71
2022/12/26 22:25:55;;;;;;;10.90;4.53;;;;;;;3.04;100.00;102056.53;5275137;28;20037;-71
2022/12/26 22:28:28;;;;;;;;;;;;;;;3.07;100.00;102055.66;5276847;28;20028;-70
2022/12/26 22:31:00;;;;;;;12.00;4.20;;;;;;;2.92;100.00;102051.47;5271661;28;19917;-70
2022/12/26 22:33:32;;;;;;;10.23;4.37;;;;;;;2.89;100.00;102052.34;5270372;28;20035;-70
2022/12/26 22:36:06;;;;;;;14.17;4.50;;;;;;;2.93;100.00;102058.38;5275713;28;20047;-72
2022/12/26 22:38:37;;;;;;;10.70;4.23;;;;;;;2.96;100.00;102060.94;5275691;28;20483;-69
2022/12/26 22:41:09;;;;;;;11.63;3.93;;;;;;;2.92;100.00;102064.41;5271566;28;20036;-70
2022/12/26 22:43:42;;;;;;;9.77;4.70;;;;;;;2.92;100.00;102059.22;5273539;28;20024;-70
2022/12/26 22:46:13;;;;;;;11.83;4.20;;;;;;;2.90;100.00;102070.47;5274343;28;20029;-70
2022/12/26 22:48:44;;;;;;;16.10;4.60;;;;;;;2.90;100.00;102073.03;5275251;28;20036;-70
2022/12/26 22:51:19;;;;;;;13.20;5.17;;;;;;;2.73;100.00;102047.31;5276482;28;20100;-70
2022/12/26 22:53:59;;;;;;;13.25;3.95;;;;;;;2.90;100.00;102073.03;5271960;28;20064;-71
2022/12/26 22:56:31;;;;;;;9.27;4.37;;;;;;;2.88;100.00;102079.97;5277038;28;20020;-70
2022/12/26 22:59:03;;;;;;;13.20;4.63;;;;;;;2.85;100.00;102072.22;5276201;28;20024;-69
2022/12/26 23:01:34;;;;;;;14.10;5.10;;;;;;;2.83;100.00;102081.72;5275962;28;20021;-72
2022/12/26 23:04:06;;;;;;;9.47;4.80;;;;;;;2.90;100.00;102078.22;5276266;28;20056;-74
